sensor_id;sensor_type;location;lat;lon;timestamp;pressure;altitude;pressure_sealevel;temperature
47484;BMP280;54076;50.322;18.650;2022-08-03T00:04:51;99414.84;;;18.18
47484;BMP280;54076;50.322;18.650;2022-08-03T00:09:52;99411.56;;;18.15
47484;BMP280;54076;50.322;18.650;2022-08-03T00:14:53;99412.87;;;18.09
47484;BMP280;54076;50.322;18.650;2022-08-03T00:19:54;99411.84;;;18.02
47484;BMP280;54076;50.322;18.650;2022-08-03T00:24:55;99410.38;;;17.97
47484;BMP280;54076;50.322;18.650;2022-08-03T00:29:56;99409.36;;;17.92
47484;BMP280;54076;50.322;18.650;2022-08-03T00:34:57;99405.65;;;17.81
47484;BMP280;54076;50.322;18.650;2022-08-03T00:39:58;99405.02;;;17.71
47484;BMP280;54076;50.322;18.650;2022-08-03T00:44:59;99411.98;;;17.64
47484;BMP280;54076;50.322;18.650;2022-08-03T00:50:00;99413.14;;;17.75
47484;BMP280;54076;50.322;18.650;2022-08-03T00:55:03;99410.16;;;17.73
47484;BMP280;54076;50.322;18.650;2022-08-03T01:00:09;99413.20;;;17.80
47484;BMP280;54076;50.322;18.650;2022-08-03T01:05:11;99413.08;;;17.65
47484;BMP280;54076;50.322;18.650;2022-08-03T01:21:08;99411.55;;;17.42
47484;BMP280;54076;50.322;18.650;2022-08-03T01:31:56;99405.55;;;17.56
47484;BMP280;54076;50.322;18.650;2022-08-03T01:37:00;99410.02;;;17.48
47484;BMP280;54076;50.322;18.650;2022-08-03T01:42:05;99412.09;;;17.40
47484;BMP280;54076;50.322;18.650;2022-08-03T01:47:08;99407.92;;;17.47
47484;BMP280;54076;50.322;18.650;2022-08-03T01:52:11;99410.43;;;17.43
47484;BMP280;54076;50.322;18.650;2022-08-03T01:57:14;99407.83;;;17.35
47484;BMP280;54076;50.322;18.650;2022-08-03T02:02:16;99402.23;;;17.36
47484;BMP280;54076;50.322;18.650;2022-08-03T02:07:18;99401.13;;;17.28
47484;BMP280;54076;50.322;18.650;2022-08-03T02:12:23;99396.44;;;17.32
47484;BMP280;54076;50.322;18.650;2022-08-03T02:17:27;99396.96;;;17.27
47484;BMP280;54076;50.322;18.650;2022-08-03T02:22:28;99397.02;;;17.34
47484;BMP280;54076;50.322;18.650;2022-08-03T02:27:33;99395.95;;;17.19
47484;BMP280;54076;50.322;18.650;2022-08-03T02:32:41;99392.52;;;17.21
47484;BMP280;54076;50.322;18.650;2022-08-03T02:37:49;99396.23;;;17.01
47484;BMP280;54076;50.322;18.650;2022-08-03T02:42:54;99398.67;;;16.99
47484;BMP280;54076;50.322;18.650;2022-08-03T02:48:03;99395.55;;;16.90
47484;BMP280;54076;50.322;18.650;2022-08-03T02:53:06;99398.04;;;16.84
47484;BMP280;54076;50.322;18.650;2022-08-03T02:58:09;99406.14;;;16.80
47484;BMP280;54076;50.322;18.650;2022-08-03T03:03:12;99413.48;;;16.77
47484;BMP280;54076;50.322;18.650;2022-08-03T03:08:15;99412.10;;;16.78
47484;BMP280;54076;50.322;18.650;2022-08-03T03:13:18;99412.34;;;16.73
47484;BMP280;54076;50.322;18.650;2022-08-03T03:18:20;99412.80;;;16.79
47484;BMP280;54076;50.322;18.650;2022-08-03T03:23:22;99416.60;;;16.77
47484;BMP280;54076;50.322;18.650;2022-08-03T03:28:25;99414.48;;;16.77
47484;BMP280;54076;50.322;18.650;2022-08-03T03:33:26;99410.20;;;16.94
47484;BMP280;54076;50.322;18.650;2022-08-03T03:38:27;99418.86;;;16.74
47484;BMP280;54076;50.322;18.650;2022-08-03T03:43:28;99415.38;;;16.76
47484;BMP280;54076;50.322;18.650;2022-08-03T03:48:29;99418.94;;;16.86
47484;BMP280;54076;50.322;18.650;2022-08-03T03:53:30;99420.95;;;17.03
47484;BMP280;54076;50.322;18.650;2022-08-03T03:58:32;99419.56;;;17.29
47484;BMP280;54076;50.322;18.650;2022-08-03T04:03:34;99422.20;;;17.29
47484;BMP280;54076;50.322;18.650;2022-08-03T04:08:35;99426.85;;;17.42
47484;BMP280;54076;50.322;18.650;2022-08-03T04:14:10;99434.23;;;17.49
47484;BMP280;54076;50.322;18.650;2022-08-03T04:19:37;99440.94;;;17.60
47484;BMP280;54076;50.322;18.650;2022-08-03T04:24:44;99442.79;;;17.77
47484;BMP280;54076;50.322;18.650;2022-08-03T04:29:48;99441.83;;;17.95
47484;BMP280;54076;50.322;18.650;2022-08-03T04:34:51;99449.58;;;18.30
47484;BMP280;54076;50.322;18.650;2022-08-03T04:39:56;99446.05;;;18.22
47484;BMP280;54076;50.322;18.650;2022-08-03T04:44:58;99440.60;;;18.33
47484;BMP280;54076;50.322;18.650;2022-08-03T04:50:06;99443.27;;;18.62
47484;BMP280;54076;50.322;18.650;2022-08-03T04:55:08;99437.83;;;18.60
47484;BMP280;54076;50.322;18.650;2022-08-03T05:00:10;99439.41;;;18.64
47484;BMP280;54076;50.322;18.650;2022-08-03T05:05:11;99437.45;;;18.41
47484;BMP280;54076;50.322;18.650;2022-08-03T05:10:13;99442.42;;;18.35
47484;BMP280;54076;50.322;18.650;2022-08-03T05:15:14;99442.17;;;18.44
47484;BMP280;54076;50.322;18.650;2022-08-03T05:20:15;99446.92;;;18.82
47484;BMP280;54076;50.322;18.650;2022-08-03T05:25:16;99448.69;;;19.16
47484;BMP280;54076;50.322;18.650;2022-08-03T05:30:17;99446.49;;;19.42
47484;BMP280;54076;50.322;18.650;2022-08-03T05:35:18;99439.95;;;19.70
47484;BMP280;54076;50.322;18.650;2022-08-03T05:40:19;99447.00;;;19.93
47484;BMP280;54076;50.322;18.650;2022-08-03T05:45:20;99447.80;;;20.16
47484;BMP280;54076;50.322;18.650;2022-08-03T05:50:21;99444.02;;;20.20
47484;BMP280;54076;50.322;18.650;2022-08-03T05:55:22;99442.89;;;20.53
47484;BMP280;54076;50.322;18.650;2022-08-03T06:00:24;99442.95;;;20.61
47484;BMP280;54076;50.322;18.650;2022-08-03T06:05:25;99447.19;;;20.71
47484;BMP280;54076;50.322;18.650;2022-08-03T06:10:27;99449.83;;;21.04
47484;BMP280;54076;50.322;18.650;2022-08-03T06:15:28;99456.23;;;21.18
47484;BMP280;54076;50.322;18.650;2022-08-03T06:20:30;99459.02;;;21.21
47484;BMP280;54076;50.322;18.650;2022-08-03T06:25:31;99464.25;;;21.48
47484;BMP280;54076;50.322;18.650;2022-08-03T06:30:32;99460.62;;;21.57
47484;BMP280;54076;50.322;18.650;2022-08-03T06:35:34;99457.11;;;21.65
47484;BMP280;54076;50.322;18.650;2022-08-03T06:40:36;99460.83;;;21.68
47484;BMP280;54076;50.322;18.650;2022-08-03T06:45:40;99461.52;;;21.90
47484;BMP280;54076;50.322;18.650;2022-08-03T06:50:41;99459.42;;;22.19
47484;BMP280;54076;50.322;18.650;2022-08-03T06:55:44;99457.39;;;22.33
47484;BMP280;54076;50.322;18.650;2022-08-03T07:00:45;99457.28;;;22.58
47484;BMP280;54076;50.322;18.650;2022-08-03T07:05:46;99457.42;;;22.78
47484;BMP280;54076;50.322;18.650;2022-08-03T07:10:47;99449.50;;;22.78
47484;BMP280;54076;50.322;18.650;2022-08-03T07:15:48;99445.60;;;23.02
47484;BMP280;54076;50.322;18.650;2022-08-03T07:20:49;99445.23;;;22.99
47484;BMP280;54076;50.322;18.650;2022-08-03T07:25:50;99447.95;;;23.17
47484;BMP280;54076;50.322;18.650;2022-08-03T07:30:51;99448.73;;;23.27
47484;BMP280;54076;50.322;18.650;2022-08-03T07:35:52;99448.27;;;23.37
47484;BMP280;54076;50.322;18.650;2022-08-03T07:40:53;99445.31;;;23.67
47484;BMP280;54076;50.322;18.650;2022-08-03T07:45:54;99442.08;;;23.75
47484;BMP280;54076;50.322;18.650;2022-08-03T07:50:55;99446.17;;;23.86
47484;BMP280;54076;50.322;18.650;2022-08-03T07:55:56;99443.71;;;24.03
47484;BMP280;54076;50.322;18.650;2022-08-03T08:00:57;99443.77;;;24.17
47484;BMP280;54076;50.322;18.650;2022-08-03T08:05:58;99446.58;;;24.35
47484;BMP280;54076;50.322;18.650;2022-08-03T08:10:59;99446.65;;;24.51
47484;BMP280;54076;50.322;18.650;2022-08-03T08:16:00;99437.98;;;24.35
47484;BMP280;54076;50.322;18.650;2022-08-03T08:21:01;99439.02;;;24.51
47484;BMP280;54076;50.322;18.650;2022-08-03T08:26:03;99439.52;;;24.66
47484;BMP280;54076;50.322;18.650;2022-08-03T08:31:04;99442.92;;;24.64
47484;BMP280;54076;50.322;18.650;2022-08-03T08:36:05;99444.73;;;24.86
47484;BMP280;54076;50.322;18.650;2022-08-03T08:41:08;99445.77;;;25.11
47484;BMP280;54076;50.322;18.650;2022-08-03T08:46:12;99445.25;;;25.37
47484;BMP280;54076;50.322;18.650;2022-08-03T08:51:15;99444.41;;;25.60
47484;BMP280;54076;50.322;18.650;2022-08-03T08:56:22;99439.42;;;25.99
47484;BMP280;54076;50.322;18.650;2022-08-03T09:01:25;99432.66;;;26.04
47484;BMP280;54076;50.322;18.650;2022-08-03T09:06:26;99429.49;;;26.23
47484;BMP280;54076;50.322;18.650;2022-08-03T09:11:27;99420.54;;;26.34
47484;BMP280;54076;50.322;18.650;2022-08-03T09:16:28;99426.27;;;26.35
47484;BMP280;54076;50.322;18.650;2022-08-03T09:21:29;99424.86;;;26.76
47484;BMP280;54076;50.322;18.650;2022-08-03T09:26:34;99417.45;;;27.18
47484;BMP280;54076;50.322;18.650;2022-08-03T09:31:44;99414.38;;;27.18
47484;BMP280;54076;50.322;18.650;2022-08-03T09:36:49;99418.45;;;27.42
47484;BMP280;54076;50.322;18.650;2022-08-03T09:42:07;99415.40;;;27.21
47484;BMP280;54076;50.322;18.650;2022-08-03T09:47:11;99418.44;;;27.30
47484;BMP280;54076;50.322;18.650;2022-08-03T09:52:18;99416.78;;;27.35
47484;BMP280;54076;50.322;18.650;2022-08-03T09:57:24;99413.95;;;27.62
47484;BMP280;54076;50.322;18.650;2022-08-03T10:02:26;99411.89;;;27.67
47484;BMP280;54076;50.322;18.650;2022-08-03T10:07:27;99411.75;;;27.71
47484;BMP280;54076;50.322;18.650;2022-08-03T10:12:29;99408.84;;;28.10
47484;BMP280;54076;50.322;18.650;2022-08-03T10:17:30;99402.45;;;28.50
47484;BMP280;54076;50.322;18.650;2022-08-03T10:22:35;99404.52;;;28.79
47484;BMP280;54076;50.322;18.650;2022-08-03T10:27:41;99401.02;;;29.56
47484;BMP280;54076;50.322;18.650;2022-08-03T10:33:01;99403.84;;;30.00
47484;BMP280;54076;50.322;18.650;2022-08-03T10:38:39;99400.26;;;30.74
47484;BMP280;54076;50.322;18.650;2022-08-03T10:44:01;99396.48;;;30.92
47484;BMP280;54076;50.322;18.650;2022-08-03T10:49:04;99395.33;;;31.37
47484;BMP280;54076;50.322;18.650;2022-08-03T10:54:06;99395.77;;;31.52
47484;BMP280;54076;50.322;18.650;2022-08-03T10:59:07;99393.52;;;32.04
47484;BMP280;54076;50.322;18.650;2022-08-03T11:04:19;99387.79;;;32.70
47484;BMP280;54076;50.322;18.650;2022-08-03T11:09:20;99379.72;;;32.70
47484;BMP280;54076;50.322;18.650;2022-08-03T11:14:21;99378.58;;;32.69
47484;BMP280;54076;50.322;18.650;2022-08-03T11:19:22;99375.46;;;33.43
47484;BMP280;54076;50.322;18.650;2022-08-03T11:35:33;99359.63;;;34.05
47484;BMP280;54076;50.322;18.650;2022-08-03T11:40:43;99362.80;;;34.01
47484;BMP280;54076;50.322;18.650;2022-08-03T11:46:00;99358.15;;;33.70
47484;BMP280;54076;50.322;18.650;2022-08-03T11:51:27;99354.36;;;33.71
47484;BMP280;54076;50.322;18.650;2022-08-03T11:56:43;99349.45;;;34.31
47484;BMP280;54076;50.322;18.650;2022-08-03T12:01:45;99344.36;;;34.21
47484;BMP280;54076;50.322;18.650;2022-08-03T12:07:00;99334.62;;;34.68
47484;BMP280;54076;50.322;18.650;2022-08-03T12:12:02;99336.69;;;33.50
47484;BMP280;54076;50.322;18.650;2022-08-03T12:17:05;99336.70;;;34.19
47484;BMP280;54076;50.322;18.650;2022-08-03T12:22:06;99333.46;;;33.80
47484;BMP280;54076;50.322;18.650;2022-08-03T12:27:07;99333.95;;;33.31
47484;BMP280;54076;50.322;18.650;2022-08-03T12:32:14;99330.98;;;33.93
47484;BMP280;54076;50.322;18.650;2022-08-03T12:37:20;99322.18;;;35.02
47484;BMP280;54076;50.322;18.650;2022-08-03T12:42:29;99314.55;;;35.41
47484;BMP280;54076;50.322;18.650;2022-08-03T12:47:56;99312.27;;;34.62
47484;BMP280;54076;50.322;18.650;2022-08-03T12:52:59;99308.32;;;34.45
47484;BMP280;54076;50.322;18.650;2022-08-03T12:58:02;99302.87;;;35.27
47484;BMP280;54076;50.322;18.650;2022-08-03T13:03:06;99301.77;;;35.37
47484;BMP280;54076;50.322;18.650;2022-08-03T13:08:21;99302.42;;;35.65
47484;BMP280;54076;50.322;18.650;2022-08-03T13:13:38;99298.73;;;35.05
47484;BMP280;54076;50.322;18.650;2022-08-03T13:18:39;99297.34;;;34.82
47484;BMP280;54076;50.322;18.650;2022-08-03T13:23:41;99293.19;;;33.88
47484;BMP280;54076;50.322;18.650;2022-08-03T13:28:42;99290.06;;;34.51
47484;BMP280;54076;50.322;18.650;2022-08-03T13:33:43;99289.39;;;33.91
47484;BMP280;54076;50.322;18.650;2022-08-03T13:38:44;99287.75;;;34.10
47484;BMP280;54076;50.322;18.650;2022-08-03T13:43:45;99286.10;;;33.27
47484;BMP280;54076;50.322;18.650;2022-08-03T13:48:46;99282.38;;;33.01
47484;BMP280;54076;50.322;18.650;2022-08-03T13:53:49;99286.52;;;31.93
47484;BMP280;54076;50.322;18.650;2022-08-03T13:58:50;99285.09;;;32.32
47484;BMP280;54076;50.322;18.650;2022-08-03T14:03:52;99279.26;;;32.33
47484;BMP280;54076;50.322;18.650;2022-08-03T14:08:54;99278.17;;;32.19
47484;BMP280;54076;50.322;18.650;2022-08-03T14:13:56;99272.58;;;31.93
47484;BMP280;54076;50.322;18.650;2022-08-03T14:18:57;99272.15;;;31.70
47484;BMP280;54076;50.322;18.650;2022-08-03T14:23:58;99265.21;;;31.90
47484;BMP280;54076;50.322;18.650;2022-08-03T14:28:59;99264.20;;;31.92
47484;BMP280;54076;50.322;18.650;2022-08-03T14:34:00;99268.23;;;31.66
47484;BMP280;54076;50.322;18.650;2022-08-03T14:39:00;99266.50;;;31.72
47484;BMP280;54076;50.322;18.650;2022-08-03T14:44:02;99262.48;;;31.37
47484;BMP280;54076;50.322;18.650;2022-08-03T14:49:03;99252.29;;;31.41
47484;BMP280;54076;50.322;18.650;2022-08-03T14:54:05;99254.95;;;31.05
47484;BMP280;54076;50.322;18.650;2022-08-03T14:59:05;99247.48;;;31.67
47484;BMP280;54076;50.322;18.650;2022-08-03T15:04:06;99245.15;;;31.70
47484;BMP280;54076;50.322;18.650;2022-08-03T15:09:08;99241.70;;;31.72
47484;BMP280;54076;50.322;18.650;2022-08-03T15:14:09;99244.06;;;31.58
47484;BMP280;54076;50.322;18.650;2022-08-03T15:19:10;99242.91;;;31.72
47484;BMP280;54076;50.322;18.650;2022-08-03T15:24:11;99240.34;;;31.92
47484;BMP280;54076;50.322;18.650;2022-08-03T15:29:12;99236.71;;;32.61
47484;BMP280;54076;50.322;18.650;2022-08-03T15:34:16;99235.54;;;33.15
47484;BMP280;54076;50.322;18.650;2022-08-03T15:39:18;99233.71;;;32.97
47484;BMP280;54076;50.322;18.650;2022-08-03T15:44:19;99224.46;;;32.73
47484;BMP280;54076;50.322;18.650;2022-08-03T15:49:20;99222.61;;;32.83
47484;BMP280;54076;50.322;18.650;2022-08-03T15:54:21;99224.69;;;33.03
47484;BMP280;54076;50.322;18.650;2022-08-03T15:59:22;99224.73;;;35.38
47484;BMP280;54076;50.322;18.650;2022-08-03T16:04:23;99219.14;;;35.07
47484;BMP280;54076;50.322;18.650;2022-08-03T16:09:24;99214.86;;;34.31
47484;BMP280;54076;50.322;18.650;2022-08-03T16:14:25;99206.84;;;33.77
47484;BMP280;54076;50.322;18.650;2022-08-03T16:19:26;99203.77;;;33.06
47484;BMP280;54076;50.322;18.650;2022-08-03T16:24:27;99202.82;;;32.95
47484;BMP280;54076;50.322;18.650;2022-08-03T16:29:28;99202.91;;;34.18
47484;BMP280;54076;50.322;18.650;2022-08-03T16:34:29;99193.23;;;36.13
47484;BMP280;54076;50.322;18.650;2022-08-03T16:39:31;99192.64;;;36.47
47484;BMP280;54076;50.322;18.650;2022-08-03T16:44:32;99186.34;;;36.45
47484;BMP280;54076;50.322;18.650;2022-08-03T16:49:33;99191.91;;;36.41
47484;BMP280;54076;50.322;18.650;2022-08-03T16:54:34;99195.14;;;37.22
47484;BMP280;54076;50.322;18.650;2022-08-03T16:59:35;99192.78;;;36.82
47484;BMP280;54076;50.322;18.650;2022-08-03T17:04:37;99196.69;;;36.89
47484;BMP280;54076;50.322;18.650;2022-08-03T17:09:38;99202.76;;;36.72
47484;BMP280;54076;50.322;18.650;2022-08-03T17:14:39;99201.06;;;36.89
47484;BMP280;54076;50.322;18.650;2022-08-03T17:19:42;99210.92;;;37.33
47484;BMP280;54076;50.322;18.650;2022-08-03T17:24:46;99213.88;;;36.65
47484;BMP280;54076;50.322;18.650;2022-08-03T17:29:51;99210.61;;;36.13
47484;BMP280;54076;50.322;18.650;2022-08-03T17:34:55;99218.45;;;35.54
47484;BMP280;54076;50.322;18.650;2022-08-03T17:39:58;99225.95;;;35.44
47484;BMP280;54076;50.322;18.650;2022-08-03T17:44:59;99227.09;;;35.04
47484;BMP280;54076;50.322;18.650;2022-08-03T17:50:00;99226.56;;;34.10
47484;BMP280;54076;50.322;18.650;2022-08-03T17:55:06;99234.56;;;33.31
47484;BMP280;54076;50.322;18.650;2022-08-03T18:00:14;99234.75;;;32.99
47484;BMP280;54076;50.322;18.650;2022-08-03T18:05:35;99233.70;;;31.94
47484;BMP280;54076;50.322;18.650;2022-08-03T18:10:37;99244.73;;;31.15
47484;BMP280;54076;50.322;18.650;2022-08-03T18:15:51;99241.91;;;30.28
47484;BMP280;54076;50.322;18.650;2022-08-03T18:20:53;99245.31;;;29.04
47484;BMP280;54076;50.322;18.650;2022-08-03T18:25:55;99243.54;;;28.24
47484;BMP280;54076;50.322;18.650;2022-08-03T18:30:56;99248.34;;;27.47
47484;BMP280;54076;50.322;18.650;2022-08-03T18:35:58;99257.02;;;26.90
47484;BMP280;54076;50.322;18.650;2022-08-03T18:41:00;99264.45;;;26.48
47484;BMP280;54076;50.322;18.650;2022-08-03T18:46:05;99272.52;;;25.95
47484;BMP280;54076;50.322;18.650;2022-08-03T18:51:16;99277.84;;;25.38
47484;BMP280;54076;50.322;18.650;2022-08-03T19:01:53;99300.22;;;24.54
47484;BMP280;54076;50.322;18.650;2022-08-03T19:07:03;99303.17;;;24.50
47484;BMP280;54076;50.322;18.650;2022-08-03T19:12:15;99305.61;;;24.62
47484;BMP280;54076;50.322;18.650;2022-08-03T19:17:18;99305.70;;;24.78
47484;BMP280;54076;50.322;18.650;2022-08-03T19:22:19;99302.38;;;24.74
47484;BMP280;54076;50.322;18.650;2022-08-03T19:27:21;99302.14;;;24.36
47484;BMP280;54076;50.322;18.650;2022-08-03T19:32:27;99301.61;;;24.09
47484;BMP280;54076;50.322;18.650;2022-08-03T19:37:29;99305.69;;;24.25
47484;BMP280;54076;50.322;18.650;2022-08-03T19:42:36;99303.11;;;24.53
47484;BMP280;54076;50.322;18.650;2022-08-03T19:47:57;99303.46;;;24.63
47484;BMP280;54076;50.322;18.650;2022-08-03T19:53:07;99304.17;;;24.23
47484;BMP280;54076;50.322;18.650;2022-08-03T19:58:09;99310.23;;;23.65
47484;BMP280;54076;50.322;18.650;2022-08-03T20:03:10;99309.45;;;23.32
47484;BMP280;54076;50.322;18.650;2022-08-03T20:08:12;99312.98;;;23.27
47484;BMP280;54076;50.322;18.650;2022-08-03T20:13:14;99316.92;;;23.08
47484;BMP280;54076;50.322;18.650;2022-08-03T20:18:16;99314.61;;;23.11
47484;BMP280;54076;50.322;18.650;2022-08-03T20:23:18;99317.02;;;23.00
47484;BMP280;54076;50.322;18.650;2022-08-03T20:33:34;99321.28;;;22.51
47484;BMP280;54076;50.322;18.650;2022-08-03T20:38:36;99317.36;;;22.45
47484;BMP280;54076;50.322;18.650;2022-08-03T20:43:39;99315.95;;;22.56
47484;BMP280;54076;50.322;18.650;2022-08-03T20:48:41;99320.43;;;22.72
47484;BMP280;54076;50.322;18.650;2022-08-03T20:53:44;99318.07;;;22.65
47484;BMP280;54076;50.322;18.650;2022-08-03T20:58:45;99316.44;;;22.58
47484;BMP280;54076;50.322;18.650;2022-08-03T21:03:46;99316.63;;;22.50
47484;BMP280;54076;50.322;18.650;2022-08-03T21:08:51;99318.88;;;22.35
47484;BMP280;54076;50.322;18.650;2022-08-03T21:14:00;99322.58;;;22.45
47484;BMP280;54076;50.322;18.650;2022-08-03T21:19:02;99320.63;;;22.52
47484;BMP280;54076;50.322;18.650;2022-08-03T21:24:06;99321.42;;;22.68
47484;BMP280;54076;50.322;18.650;2022-08-03T21:29:10;99322.67;;;22.48
47484;BMP280;54076;50.322;18.650;2022-08-03T21:34:14;99325.64;;;22.39
47484;BMP280;54076;50.322;18.650;2022-08-03T21:39:15;99324.48;;;22.28
47484;BMP280;54076;50.322;18.650;2022-08-03T21:44:16;99328.23;;;22.06
47484;BMP280;54076;50.322;18.650;2022-08-03T21:49:18;99335.96;;;21.81
47484;BMP280;54076;50.322;18.650;2022-08-03T21:54:19;99337.40;;;21.32
47484;BMP280;54076;50.322;18.650;2022-08-03T21:59:22;99341.23;;;20.89
47484;BMP280;54076;50.322;18.650;2022-08-03T22:04:25;99349.01;;;20.60
47484;BMP280;54076;50.322;18.650;2022-08-03T22:09:27;99342.86;;;20.67
47484;BMP280;54076;50.322;18.650;2022-08-03T22:14:31;99342.30;;;20.63
47484;BMP280;54076;50.322;18.650;2022-08-03T22:19:33;99343.61;;;20.53
47484;BMP280;54076;50.322;18.650;2022-08-03T22:24:35;99350.57;;;20.59
47484;BMP280;54076;50.322;18.650;2022-08-03T22:29:37;99355.75;;;20.54
47484;BMP280;54076;50.322;18.650;2022-08-03T22:34:41;99342.93;;;20.91
47484;BMP280;54076;50.322;18.650;2022-08-03T22:39:45;99336.11;;;21.49
47484;BMP280;54076;50.322;18.650;2022-08-03T22:44:49;99336.67;;;21.76
47484;BMP280;54076;50.322;18.650;2022-08-03T22:49:51;99335.15;;;21.95
47484;BMP280;54076;50.322;18.650;2022-08-03T22:54:53;99333.91;;;21.95
47484;BMP280;54076;50.322;18.650;2022-08-03T22:59:54;99334.59;;;21.98
47484;BMP280;54076;50.322;18.650;2022-08-03T23:05:02;99336.27;;;21.89
47484;BMP280;54076;50.322;18.650;2022-08-03T23:10:10;99333.00;;;21.80
47484;BMP280;54076;50.322;18.650;2022-08-03T23:15:12;99331.20;;;21.77
47484;BMP280;54076;50.322;18.650;2022-08-03T23:20:14;99328.11;;;21.81
47484;BMP280;54076;50.322;18.650;2022-08-03T23:25:16;99326.06;;;21.80
47484;BMP280;54076;50.322;18.650;2022-08-03T23:30:17;99321.56;;;21.87
47484;BMP280;54076;50.322;18.650;2022-08-03T23:35:19;99321.40;;;21.94
47484;BMP280;54076;50.322;18.650;2022-08-03T23:40:40;99317.52;;;21.99
47484;BMP280;54076;50.322;18.650;2022-08-03T23:45:43;99315.70;;;21.87
47484;BMP280;54076;50.322;18.650;2022-08-03T23:50:47;99316.15;;;21.56
